createdAt,value
2022-11-28T00:01:02.948Z,11.01
2022-11-28T00:03:29.764Z,10.69
2022-11-28T00:05:56.594Z,10.21
2022-11-28T00:08:23.355Z,10.61
2022-11-28T00:10:50.082Z,10.89
2022-11-28T00:13:16.855Z,11.49
2022-11-28T00:15:43.593Z,11.23
2022-11-28T00:18:10.311Z,11.29
2022-11-28T00:20:40.267Z,11.19
2022-11-28T00:23:07.029Z,11.82
2022-11-28T00:25:33.676Z,11.90
2022-11-28T00:28:00.429Z,11.45
2022-11-28T00:30:27.176Z,11.32
2022-11-28T00:32:53.909Z,11.16
2022-11-28T00:35:20.512Z,11.12
2022-11-28T00:37:47.790Z,11.26
2022-11-28T00:40:14.485Z,10.89
2022-11-28T00:42:42.450Z,11.09
2022-11-28T00:45:12.426Z,11.13
2022-11-28T00:47:39.171Z,11.52
2022-11-28T00:50:06.627Z,11.03
2022-11-28T00:52:33.319Z,11.05
2022-11-28T00:55:00.348Z,11.62
2022-11-28T00:57:26.952Z,11.27
2022-11-28T00:59:53.597Z,11.64
2022-11-28T01:02:20.501Z,11.69
2022-11-28T01:04:47.280Z,11.66
2022-11-28T01:07:13.956Z,11.32
2022-11-28T01:09:40.659Z,12.02
2022-11-28T01:12:07.409Z,12.58
2022-11-28T01:14:34.073Z,12.86
2022-11-28T01:17:00.740Z,13.46
2022-11-28T01:19:27.769Z,12.82
2022-11-28T01:21:54.397Z,13.12
2022-11-28T01:24:21.101Z,14.04
2022-11-28T01:26:47.860Z,14.27
2022-11-28T01:29:14.581Z,14.67
2022-11-28T01:31:41.813Z,14.97
2022-11-28T01:34:08.528Z,16.14
2022-11-28T01:36:35.212Z,15.90
2022-11-28T01:39:01.822Z,15.90
2022-11-28T01:41:28.484Z,15.52
2022-11-28T01:44:28.555Z,15.89
2022-11-28T01:46:55.395Z,16.12
2022-11-28T01:49:29.078Z,15.82
2022-11-28T01:51:58.408Z,15.12
2022-11-28T01:54:25.189Z,15.60
2022-11-28T01:57:02.920Z,15.99
2022-11-28T01:59:33.022Z,15.85
2022-11-28T02:01:59.693Z,15.78
2022-11-28T02:04:26.868Z,16.37
2022-11-28T02:06:53.741Z,16.55
2022-11-28T02:09:20.420Z,15.78
2022-11-28T02:11:55.627Z,15.55
2022-11-28T02:14:50.127Z,16.24
2022-11-28T02:17:23.291Z,16.29
2022-11-28T02:20:17.164Z,15.43
2022-11-28T02:22:56.280Z,15.93
2022-11-28T02:25:44.417Z,16.95
2022-11-28T02:28:29.515Z,15.57
2022-11-28T02:31:21.782Z,16.18
2022-11-28T02:33:53.375Z,15.81
2022-11-28T02:36:28.877Z,15.12
2022-11-28T02:39:14.779Z,15.19
2022-11-28T02:41:47.664Z,14.82
2022-11-28T02:44:17.791Z,15.13
2022-11-28T02:46:57.426Z,14.34
2022-11-28T02:49:29.427Z,14.33
2022-11-28T02:51:58.533Z,14.45
2022-11-28T02:54:25.125Z,14.23
2022-11-28T02:56:52.586Z,14.07
2022-11-28T02:59:42.307Z,14.03
2022-11-28T03:02:28.406Z,13.64
2022-11-28T03:05:17.828Z,13.44
2022-11-28T03:07:57.979Z,13.01
2022-11-28T03:10:45.142Z,13.25
2022-11-28T03:13:26.685Z,13.57
2022-11-28T03:16:29.606Z,12.96
2022-11-28T03:19:14.552Z,12.89
2022-11-28T03:21:45.388Z,12.30
2022-11-28T03:24:23.027Z,11.82
2022-11-28T03:26:53.986Z,12.05
2022-11-28T03:29:25.933Z,11.94
2022-11-28T03:31:55.899Z,11.73
2022-11-28T03:34:24.646Z,11.83
2022-11-28T03:37:00.433Z,11.83
2022-11-28T03:39:30.319Z,12.34
2022-11-28T03:42:12.122Z,11.78
2022-11-28T03:44:45.366Z,11.38
2022-11-28T03:47:12.108Z,11.80
2022-11-28T03:49:40.620Z,11.49
2022-11-28T03:52:11.049Z,11.39
2022-11-28T03:54:42.586Z,11.58
2022-11-28T03:57:13.158Z,11.63
2022-11-28T03:59:47.844Z,11.43
2022-11-28T04:02:39.644Z,11.35
2022-11-28T04:05:23.428Z,10.63
2022-11-28T04:08:19.278Z,10.68
2022-11-28T04:10:57.682Z,10.86
2022-11-28T04:13:25.983Z,11.32
2022-11-28T04:16:07.627Z,10.93
2022-11-28T04:18:48.019Z,11.18
2022-11-28T04:21:30.603Z,10.56
2022-11-28T04:24:01.928Z,10.43
2022-11-28T04:26:32.228Z,11.20
2022-11-28T04:28:58.858Z,11.35
2022-11-28T04:31:25.541Z,11.37
2022-11-28T04:33:55.025Z,10.77
2022-11-28T04:36:21.613Z,11.20
2022-11-28T04:38:48.202Z,10.37
2022-11-28T04:41:16.785Z,10.52
2022-11-28T04:43:46.154Z,10.34
2022-11-28T04:46:18.797Z,10.55
2022-11-28T04:48:45.455Z,10.12
2022-11-28T04:51:14.846Z,9.72
2022-11-28T04:54:05.659Z,10.14
2022-11-28T04:56:38.277Z,10.67
2022-11-28T04:59:04.959Z,10.37
2022-11-28T05:01:31.586Z,10.28
2022-11-28T05:03:58.490Z,9.99
2022-11-28T05:06:33.149Z,10.21
2022-11-28T05:08:59.721Z,10.26
2022-11-28T05:11:26.335Z,9.94
2022-11-28T05:13:53.393Z,9.90
2022-11-28T05:16:20.168Z,10.17
2022-11-28T05:18:46.826Z,9.96
2022-11-28T05:21:13.468Z,9.75
2022-11-28T05:23:41.409Z,9.63
2022-11-28T05:26:09.532Z,8.94
2022-11-28T05:28:36.196Z,9.11
2022-11-28T05:31:02.880Z,9.32
2022-11-28T05:33:30.017Z,8.99
2022-11-28T05:35:57.686Z,8.62
2022-11-28T05:38:24.311Z,8.94
2022-11-28T05:40:50.915Z,9.28
2022-11-28T05:43:17.538Z,9.12
2022-11-28T05:45:44.576Z,9.54
2022-11-28T05:48:11.373Z,10.45
2022-11-28T05:50:41.173Z,10.41
2022-11-28T05:53:07.969Z,10.30
2022-11-28T05:55:34.652Z,10.02
2022-11-28T05:58:01.279Z,9.49
2022-11-28T06:00:27.976Z,9.42
2022-11-28T06:02:59.884Z,9.01
2022-11-28T06:05:42.240Z,8.59
2022-11-28T06:08:11.505Z,8.40
2022-11-28T06:10:38.137Z,8.82
2022-11-28T06:13:04.780Z,8.33
2022-11-28T06:15:34.884Z,8.73
2022-11-28T06:18:03.997Z,8.78
2022-11-28T06:20:30.625Z,8.15
2022-11-28T06:22:57.238Z,7.83
2022-11-28T06:25:23.809Z,8.28
2022-11-28T06:27:51.736Z,7.91
2022-11-28T06:30:18.385Z,7.91
2022-11-28T06:32:45.012Z,7.83
2022-11-28T06:35:11.597Z,8.23
2022-11-28T06:37:38.230Z,8.16
2022-11-28T06:40:05.606Z,8.08
2022-11-28T06:42:32.192Z,8.09
2022-11-28T06:44:58.765Z,7.80
2022-11-28T06:47:25.727Z,8.77
2022-11-28T06:49:52.356Z,8.31
2022-11-28T06:52:18.940Z,8.65
2022-11-28T06:54:45.562Z,8.29
2022-11-28T06:57:12.153Z,8.62
2022-11-28T06:59:38.772Z,8.30
2022-11-28T07:02:07.868Z,8.27
2022-11-28T07:04:34.770Z,8.43
2022-11-28T07:07:01.467Z,7.88
2022-11-28T07:09:28.063Z,8.01
2022-11-28T07:11:54.719Z,8.37
2022-11-28T07:14:21.303Z,8.14
2022-11-28T07:16:47.917Z,7.95
2022-11-28T07:19:14.573Z,8.45
2022-11-28T07:21:41.162Z,8.22
2022-11-28T07:24:07.786Z,7.76
2022-11-28T07:26:34.494Z,8.07
2022-11-28T07:29:01.096Z,7.92
2022-11-28T07:31:27.742Z,7.79
2022-11-28T07:33:54.419Z,7.64
2022-11-28T07:36:22.711Z,7.84
2022-11-28T07:38:57.278Z,7.51
2022-11-28T07:41:26.802Z,7.86
2022-11-28T07:44:01.401Z,8.92
2022-11-28T07:46:28.743Z,8.73
2022-11-28T07:48:55.439Z,8.31
2022-11-28T07:51:32.565Z,7.58
2022-11-28T07:53:59.604Z,8.25
2022-11-28T07:56:39.446Z,8.58
2022-11-28T07:59:14.902Z,8.10
2022-11-28T08:01:41.574Z,8.70
2022-11-28T08:04:08.681Z,8.36
2022-11-28T08:06:40.515Z,7.92
2022-11-28T08:09:07.190Z,8.01
2022-11-28T08:11:33.920Z,8.65
2022-11-28T08:14:00.629Z,8.12
2022-11-28T08:16:27.982Z,8.13
2022-11-28T08:18:55.109Z,8.14
2022-11-28T08:21:24.714Z,8.31
2022-11-28T08:23:52.318Z,8.40
2022-11-28T08:26:20.502Z,7.95
2022-11-28T08:28:47.413Z,8.02
2022-11-28T08:31:18.822Z,8.57
2022-11-28T08:33:46.009Z,8.38
2022-11-28T08:36:13.208Z,8.71
2022-11-28T08:38:40.507Z,7.96
2022-11-28T08:41:09.345Z,8.20
2022-11-28T08:43:36.151Z,7.99
2022-11-28T08:46:03.842Z,7.72
2022-11-28T08:48:30.440Z,7.93
2022-11-28T08:50:57.255Z,7.64
2022-11-28T08:53:23.891Z,7.89
2022-11-28T08:55:50.574Z,7.81
2022-11-28T08:58:17.170Z,7.70
2022-11-28T09:00:43.763Z,6.98
2022-11-28T09:03:18.220Z,7.83
2022-11-28T09:05:45.568Z,7.46
2022-11-28T09:08:15.843Z,7.50
2022-11-28T09:10:42.498Z,6.45
2022-11-28T09:13:09.120Z,6.54
2022-11-28T09:15:41.939Z,6.87
2022-11-28T09:18:08.572Z,6.07
2022-11-28T09:20:35.415Z,4.99
2022-11-28T09:23:01.998Z,4.51
2022-11-28T09:25:28.624Z,5.42
2022-11-28T09:27:55.266Z,4.69
2022-11-28T09:30:21.866Z,3.36
2022-11-28T09:32:49.283Z,2.99
2022-11-28T09:35:16.938Z,3.21
2022-11-28T09:37:43.757Z,4.38
2022-11-28T09:40:17.954Z,4.12
2022-11-28T09:42:44.666Z,3.24
2022-11-28T09:45:14.617Z,3.06
2022-11-28T09:47:41.856Z,3.92
2022-11-28T09:50:15.313Z,4.16
2022-11-28T09:53:03.211Z,3.45
2022-11-28T09:55:36.352Z,3.43
2022-11-28T09:58:29.758Z,2.86
2022-11-28T10:01:10.757Z,3.23
2022-11-28T10:03:49.025Z,3.61
2022-11-28T10:06:25.972Z,2.92
2022-11-28T10:09:15.223Z,3.00
2022-11-28T10:12:03.320Z,3.31
2022-11-28T10:14:45.432Z,3.31
2022-11-28T10:17:17.901Z,3.08
2022-11-28T10:20:06.421Z,3.11
2022-11-28T10:22:46.673Z,2.67
2022-11-28T10:25:29.394Z,2.89
2022-11-28T10:27:56.003Z,3.06
2022-11-28T10:30:26.136Z,3.18
2022-11-28T10:33:06.533Z,3.03
2022-11-28T10:35:42.585Z,3.24
2022-11-28T10:38:13.197Z,5.63
2022-11-28T10:40:53.979Z,5.60
2022-11-28T10:43:41.134Z,3.18
2022-11-28T10:46:35.586Z,3.85
2022-11-28T10:49:30.628Z,3.30
2022-11-28T10:52:15.471Z,10.09
2022-11-28T10:54:47.809Z,3.54
2022-11-28T10:57:18.264Z,3.45
2022-11-28T11:00:00.011Z,2.97
2022-11-28T11:02:26.448Z,3.44
2022-11-28T11:04:53.106Z,3.19
2022-11-28T11:07:25.147Z,2.89
2022-11-28T11:09:55.810Z,2.79
2022-11-28T11:12:26.242Z,2.78
2022-11-28T11:14:53.008Z,3.83
2022-11-28T11:17:36.179Z,3.30
2022-11-28T11:20:25.378Z,2.70
2022-11-28T11:23:00.251Z,2.93
2022-11-28T11:25:31.446Z,3.08
2022-11-28T11:28:02.641Z,2.98
2022-11-28T11:30:34.849Z,2.91
2022-11-28T11:33:02.168Z,3.27
2022-11-28T11:35:29.986Z,3.53
2022-11-28T11:38:33.500Z,3.64
2022-11-28T11:41:30.691Z,3.40
2022-11-28T11:43:58.276Z,4.41
2022-11-28T11:46:24.959Z,4.45
2022-11-28T11:48:52.536Z,4.24
2022-11-28T11:51:26.735Z,4.56
2022-11-28T11:54:02.179Z,4.03
2022-11-28T11:56:30.979Z,4.04
2022-11-28T11:58:57.609Z,4.24
2022-11-28T12:01:24.269Z,4.00
2022-11-28T12:03:59.408Z,3.91
2022-11-28T12:06:32.367Z,5.09
2022-11-28T12:09:08.021Z,4.41
2022-11-28T12:11:36.004Z,3.87
2022-11-28T12:14:24.327Z,5.12
2022-11-28T12:16:50.901Z,4.94
2022-11-28T12:19:31.106Z,4.52
2022-11-28T12:22:16.249Z,5.26
2022-11-28T12:25:11.794Z,4.85
2022-11-28T12:27:59.557Z,5.63
2022-11-28T12:31:07.567Z,4.09
2022-11-28T12:34:00.557Z,4.81
2022-11-28T12:36:31.424Z,4.37
2022-11-28T12:39:37.460Z,4.31
2022-11-28T12:42:16.511Z,6.47
2022-11-28T12:44:49.933Z,4.50
2022-11-28T12:47:35.201Z,4.37
2022-11-28T12:50:10.562Z,3.84
2022-11-28T12:52:55.935Z,4.21
2022-11-28T12:55:37.881Z,3.97
2022-11-28T12:58:35.399Z,4.12
2022-11-28T13:01:16.906Z,3.77
2022-11-28T13:04:02.232Z,5.11
2022-11-28T13:06:36.505Z,4.01
2022-11-28T13:09:24.780Z,4.19
2022-11-28T13:12:12.217Z,4.28
2022-11-28T13:14:41.648Z,4.44
2022-11-28T13:17:22.580Z,4.14
2022-11-28T13:19:59.661Z,3.71
2022-11-28T13:22:41.590Z,4.14
2022-11-28T13:25:26.777Z,4.05
2022-11-28T13:28:18.899Z,4.12
2022-11-28T13:31:19.935Z,4.02
2022-11-28T13:33:53.865Z,3.72
2022-11-28T13:39:36.305Z,3.91
2022-11-28T13:42:36.565Z,3.32
2022-11-28T13:45:00.781Z,3.40
2022-11-28T13:47:30.034Z,3.51
2022-11-28T13:50:34.594Z,3.51
2022-11-28T13:53:02.938Z,3.93
2022-11-28T13:55:43.145Z,3.46
2022-11-28T13:58:22.323Z,3.03
2022-11-28T14:01:11.413Z,3.00
2022-11-28T14:03:51.332Z,2.33
2022-11-28T14:06:25.137Z,2.26
2022-11-28T14:09:20.621Z,1.68
2022-11-28T14:12:08.365Z,1.95
2022-11-28T14:15:01.930Z,2.01
2022-11-28T14:17:37.607Z,1.73
2022-11-28T14:20:25.541Z,1.67
2022-11-28T14:23:14.290Z,1.58
2022-11-28T14:25:45.179Z,1.93
2022-11-28T14:28:31.641Z,1.86
2022-11-28T14:31:12.987Z,2.22
2022-11-28T14:33:40.568Z,2.13
2022-11-28T14:36:34.166Z,2.03
2022-11-28T14:39:11.222Z,2.00
2022-11-28T14:42:05.730Z,2.05
2022-11-28T14:44:57.056Z,2.08
2022-11-28T14:47:33.746Z,2.10
2022-11-28T14:50:09.135Z,2.11
2022-11-28T14:52:42.447Z,2.17
2022-11-28T14:55:11.936Z,2.02
2022-11-28T14:57:51.564Z,2.08
2022-11-28T15:00:23.870Z,1.88
2022-11-28T15:03:03.572Z,2.08
2022-11-28T15:05:46.028Z,2.09
2022-11-28T15:08:26.653Z,1.85
2022-11-28T15:11:14.792Z,1.87
2022-11-28T15:13:54.588Z,1.98
2022-11-28T15:16:21.276Z,1.87
2022-11-28T15:18:50.920Z,2.11
2022-11-28T15:21:18.534Z,1.90
2022-11-28T15:23:45.235Z,1.87
2022-11-28T15:26:23.160Z,2.04
2022-11-28T15:28:49.762Z,1.62
2022-11-28T15:31:21.026Z,1.88
2022-11-28T15:33:48.142Z,1.79
2022-11-28T15:36:26.409Z,1.97
2022-11-28T15:38:53.354Z,1.95
2022-11-28T15:41:21.855Z,1.96
2022-11-28T15:43:48.474Z,2.04
2022-11-28T15:46:21.020Z,1.82
2022-11-28T15:48:51.766Z,2.33
2022-11-28T15:51:29.328Z,2.08
2022-11-28T15:53:56.280Z,2.08
2022-11-28T15:56:23.085Z,2.15
2022-11-28T15:58:49.673Z,1.95
2022-11-28T16:01:20.001Z,1.87
2022-11-28T16:03:59.165Z,2.11
2022-11-28T16:06:28.724Z,1.93
2022-11-28T16:08:56.847Z,2.01
2022-11-28T16:11:24.888Z,2.18
2022-11-28T16:13:52.431Z,3.03
2022-11-28T16:16:21.035Z,2.47
2022-11-28T16:19:04.675Z,3.34
2022-11-28T16:21:33.128Z,2.64
2022-11-28T16:24:00.784Z,2.19
2022-11-28T16:26:27.300Z,1.99
2022-11-28T16:29:00.078Z,1.59
2022-11-28T16:31:26.820Z,1.63
2022-11-28T16:33:53.513Z,1.57
2022-11-28T16:36:36.531Z,1.83
2022-11-28T16:39:16.189Z,1.87
2022-11-28T16:41:53.495Z,1.22
2022-11-28T16:44:20.828Z,1.50
2022-11-28T16:46:59.666Z,1.23
2022-11-28T16:49:31.993Z,1.26
2022-11-28T16:52:22.151Z,1.46
2022-11-28T16:54:49.530Z,1.72
2022-11-28T16:57:16.353Z,1.54
2022-11-28T16:59:43.758Z,1.42
2022-11-28T17:02:24.155Z,1.42
2022-11-28T17:04:51.566Z,1.94
2022-11-28T17:07:20.280Z,1.12
2022-11-28T17:09:47.676Z,0.97
2022-11-28T17:12:28.223Z,1.81
2022-11-28T17:14:54.999Z,2.06
2022-11-28T17:17:22.130Z,1.66
2022-11-28T17:19:48.816Z,1.21
2022-11-28T17:22:17.044Z,1.16
2022-11-28T17:24:43.725Z,1.14
2022-11-28T17:27:12.089Z,0.90
2022-11-28T17:29:38.669Z,1.08
2022-11-28T17:32:05.517Z,1.62
2022-11-28T17:34:33.478Z,1.52
2022-11-28T17:37:00.984Z,1.16
2022-11-28T17:39:27.704Z,0.96
2022-11-28T17:41:54.313Z,1.12
2022-11-28T17:44:22.666Z,1.71
2022-11-28T17:46:49.972Z,3.14
2022-11-28T17:49:16.621Z,2.47
2022-11-28T17:51:43.269Z,1.72
2022-11-28T17:54:13.361Z,1.36
2022-11-28T17:56:40.048Z,1.93
2022-11-28T17:59:06.662Z,1.63
2022-11-28T18:01:33.359Z,1.79
2022-11-28T18:03:59.994Z,1.57
2022-11-28T18:06:26.623Z,1.43
2022-11-28T18:08:53.221Z,1.93
2022-11-28T18:11:19.816Z,1.86
2022-11-28T18:13:46.454Z,1.76
2022-11-28T18:16:14.012Z,1.82
2022-11-28T18:18:40.719Z,1.95
2022-11-28T18:21:07.500Z,2.29
2022-11-28T18:23:35.299Z,2.46
2022-11-28T18:26:06.232Z,2.21
2022-11-28T18:28:32.816Z,2.04
2022-11-28T18:30:59.399Z,1.75
2022-11-28T18:33:26.013Z,1.75
2022-11-28T18:35:52.668Z,1.67
2022-11-28T18:38:19.242Z,1.69
2022-11-28T18:40:45.828Z,1.59
2022-11-28T18:43:12.479Z,1.49
2022-11-28T18:45:39.097Z,1.40
2022-11-28T18:48:05.728Z,1.40
2022-11-28T18:50:32.320Z,1.44
2022-11-28T18:52:58.971Z,1.45
2022-11-28T18:55:25.663Z,1.57
2022-11-28T18:57:52.305Z,2.16
2022-11-28T19:00:19.576Z,2.15
2022-11-28T19:02:46.241Z,2.17
2022-11-28T19:05:12.864Z,1.92
2022-11-28T19:07:39.506Z,1.53
2022-11-28T19:10:06.650Z,1.61
2022-11-28T19:12:33.301Z,1.60
2022-11-28T19:15:02.378Z,1.60
2022-11-28T19:17:29.532Z,1.42
2022-11-28T19:19:56.208Z,1.71
2022-11-28T19:22:22.822Z,1.96
2022-11-28T19:24:49.441Z,2.14
2022-11-28T19:27:16.089Z,2.37
2022-11-28T19:29:43.010Z,3.38
2022-11-28T19:32:09.918Z,3.60
2022-11-28T19:34:36.571Z,4.45
2022-11-28T19:37:03.152Z,4.38
2022-11-28T19:39:29.757Z,4.44
2022-11-28T19:41:56.427Z,4.46
2022-11-28T19:44:23.204Z,4.57
2022-11-28T19:46:49.981Z,4.49
2022-11-28T19:49:18.532Z,4.99
2022-11-28T19:51:45.652Z,4.81
2022-11-28T19:54:12.345Z,4.92
2022-11-28T19:56:39.103Z,5.01
2022-11-28T19:59:05.813Z,4.53
2022-11-28T20:01:32.518Z,4.67
2022-11-28T20:03:59.166Z,5.14
2022-11-28T20:06:27.259Z,5.37
2022-11-28T20:08:54.302Z,5.49
2022-11-28T20:11:24.268Z,5.35
2022-11-28T20:14:01.864Z,5.48
2022-11-28T20:16:30.599Z,5.53
2022-11-28T20:18:57.331Z,5.06
2022-11-28T20:21:23.907Z,5.25
2022-11-28T20:23:51.940Z,5.45
2022-11-28T20:26:19.494Z,5.43
2022-11-28T20:28:46.217Z,5.44
2022-11-28T20:31:20.454Z,5.54
2022-11-28T20:33:47.947Z,5.52
2022-11-28T20:36:16.070Z,5.87
2022-11-28T20:38:42.689Z,5.88
2022-11-28T20:41:10.073Z,5.26
2022-11-28T20:43:37.672Z,5.62
2022-11-28T20:46:09.227Z,5.96
2022-11-28T20:48:35.927Z,6.00
2022-11-28T20:51:02.554Z,6.08
2022-11-28T20:53:29.216Z,5.75
2022-11-28T20:56:02.647Z,5.41
2022-11-28T20:58:29.727Z,5.30
2022-11-28T21:00:56.425Z,5.58
2022-11-28T21:03:23.153Z,5.29
2022-11-28T21:05:49.838Z,5.30
2022-11-28T21:08:16.432Z,5.27
2022-11-28T21:10:43.069Z,5.39
2022-11-28T21:13:09.697Z,5.36
2022-11-28T21:15:43.116Z,5.39
2022-11-28T21:18:09.759Z,5.15
2022-11-28T21:20:44.237Z,5.24
2022-11-28T21:23:14.661Z,5.03
2022-11-28T21:25:41.551Z,5.04
2022-11-28T21:28:08.549Z,5.44
2022-11-28T21:30:40.437Z,5.42
2022-11-28T21:33:07.089Z,5.52
2022-11-28T21:35:34.683Z,5.41
2022-11-28T21:38:01.296Z,5.03
2022-11-28T21:40:27.883Z,5.37
2022-11-28T21:42:54.514Z,5.17
2022-11-28T21:45:21.162Z,6.23
2022-11-28T21:47:47.803Z,6.80
2022-11-28T21:50:14.437Z,6.22
2022-11-28T21:52:41.034Z,6.69
2022-11-28T21:55:07.681Z,5.48
2022-11-28T21:57:34.285Z,5.41
2022-11-28T22:00:00.924Z,6.17
2022-11-28T22:02:35.001Z,5.64
2022-11-28T22:05:01.620Z,5.60
2022-11-28T22:07:28.283Z,5.90
2022-11-28T22:09:54.947Z,5.80
2022-11-28T22:12:21.658Z,5.81
2022-11-28T22:14:48.414Z,5.42
2022-11-28T22:17:15.332Z,5.65
2022-11-28T22:19:41.921Z,5.88
2022-11-28T22:22:08.509Z,5.48
2022-11-28T22:24:35.158Z,4.73
2022-11-28T22:27:01.866Z,5.23
2022-11-28T22:29:28.605Z,4.93
2022-11-28T22:31:55.285Z,5.41
2022-11-28T22:34:22.035Z,5.65
2022-11-28T22:36:48.680Z,5.44
2022-11-28T22:39:15.271Z,5.11
2022-11-28T22:41:41.902Z,5.12
2022-11-28T22:44:09.839Z,5.56
2022-11-28T22:46:36.467Z,5.69
2022-11-28T22:49:03.293Z,5.68
2022-11-28T22:51:30.232Z,5.63
2022-11-28T22:53:57.890Z,5.62
2022-11-28T22:56:25.740Z,5.73
2022-11-28T22:58:52.366Z,6.01
2022-11-28T23:01:23.722Z,5.91
2022-11-28T23:03:50.412Z,5.71
2022-11-28T23:06:25.143Z,5.38
2022-11-28T23:08:51.870Z,5.36
2022-11-28T23:11:22.961Z,5.28
2022-11-28T23:13:49.725Z,5.60
2022-11-28T23:16:30.416Z,5.23
2022-11-28T23:18:58.663Z,5.25
2022-11-28T23:21:25.423Z,5.53
2022-11-28T23:23:52.055Z,5.23
2022-11-28T23:26:21.018Z,5.24
2022-11-28T23:28:47.703Z,5.15
2022-11-28T23:31:19.640Z,5.32
2022-11-28T23:33:46.305Z,5.05
2022-11-28T23:36:18.185Z,5.20
2022-11-28T23:38:45.153Z,5.39
2022-11-28T23:41:12.185Z,5.25
2022-11-28T23:43:38.912Z,5.44
2022-11-28T23:46:06.002Z,5.84
2022-11-28T23:48:32.673Z,5.87
2022-11-28T23:50:59.315Z,5.68
2022-11-28T23:53:25.904Z,6.14
2022-11-28T23:55:53.907Z,6.17
2022-11-28T23:58:20.499Z,5.81
